Time;durP1;ratioP1;P1;durP2;ratioP2;P2;SDS_P1;SDS_P2;PMS_P1;PMS_P2;Temp;Humidity;BMP_temperature;BMP_pressure;BME280_temperature;BME280_humidity;BME280_pressure;Samples;Min_cycle;Max_cycle;Signal;HPM_P1;HPM_P2
2023/05/23 00:01:44;;;;;;;21.05;15.25;;;14.20;99.90;;;;;;5017117;28;20574;-77
2023/05/23 00:04:15;;;;;;;23.23;15.95;;;14.10;99.90;;;;;;5017153;28;20243;-77
2023/05/23 00:06:45;;;;;;;22.20;16.63;;;14.10;99.90;;;;;;5010634;28;20225;-77
2023/05/23 00:09:13;;;;;;;21.92;15.75;;;14.10;99.90;;;;;;5014652;28;20656;-78
2023/05/23 00:11:43;;;;;;;21.83;15.77;;;14.10;99.90;;;;;;5015037;28;20694;-77
2023/05/23 00:14:10;;;;;;;22.75;15.27;;;14.10;99.90;;;;;;5015251;28;20175;-77
2023/05/23 00:16:40;;;;;;;22.52;16.02;;;14.10;99.90;;;;;;5015351;28;20199;-77
2023/05/23 00:19:05;;;;;;;20.35;15.43;;;14.10;99.90;;;;;;5016876;28;20179;-77
2023/05/23 00:21:32;;;;;;;21.80;16.05;;;14.10;99.90;;;;;;5015307;28;20542;-77
2023/05/23 00:23:58;;;;;;;21.90;15.68;;;14.10;99.90;;;;;;5014517;28;20180;-78
2023/05/23 00:26:24;;;;;;;22.27;16.48;;;14.10;99.90;;;;;;5015811;28;20215;-77
2023/05/23 00:28:50;;;;;;;21.00;16.38;;;14.20;99.90;;;;;;5015914;28;20206;-77
2023/05/23 00:31:16;;;;;;;22.10;16.02;;;14.20;99.90;;;;;;5014202;28;20708;-77
2023/05/23 00:33:42;;;;;;;22.92;17.48;;;14.20;99.90;;;;;;5015295;28;20210;-77
2023/05/23 00:36:08;;;;;;;23.83;15.73;;;14.20;99.90;;;;;;5014785;28;20676;-77
2023/05/23 00:38:33;;;;;;;24.98;16.27;;;14.30;99.90;;;;;;5015718;28;20176;-77
2023/05/23 00:41:00;;;;;;;23.38;16.77;;;14.30;99.90;;;;;;5015693;28;20191;-77
2023/05/23 00:43:26;;;;;;;23.85;17.75;;;14.40;99.90;;;;;;5013734;28;20234;-77
2023/05/23 00:45:52;;;;;;;25.63;18.83;;;14.40;99.90;;;;;;5013594;28;20207;-76
2023/05/23 00:48:18;;;;;;;26.13;18.55;;;14.30;99.90;;;;;;5014969;28;20176;-77
2023/05/23 00:50:44;;;;;;;26.80;18.95;;;14.30;99.90;;;;;;5014652;28;20168;-77
2023/05/23 00:53:11;;;;;;;27.52;19.73;;;14.40;99.90;;;;;;5015201;28;20172;-77
2023/05/23 00:55:38;;;;;;;30.15;21.23;;;14.40;99.90;;;;;;5013474;28;20687;-77
2023/05/23 00:58:04;;;;;;;30.27;20.70;;;14.40;99.90;;;;;;5014737;28;20206;-77
2023/05/23 01:00:30;;;;;;;28.40;19.63;;;14.40;99.90;;;;;;5013234;28;20187;-78
2023/05/23 01:02:56;;;;;;;30.25;19.65;;;14.40;99.90;;;;;;5014732;28;20176;-77
2023/05/23 01:05:23;;;;;;;26.67;20.15;;;14.40;99.90;;;;;;5013015;28;20270;-77
2023/05/23 01:07:50;;;;;;;29.23;20.27;;;14.40;99.90;;;;;;5014480;28;20195;-76
2023/05/23 01:10:22;;;;;;;24.30;17.95;;;14.40;99.90;;;;;;5013347;28;20176;-77
2023/05/23 01:13:18;;;;;;;28.60;19.50;;;14.40;99.90;;;;;;5014434;28;20512;-77
2023/05/23 01:15:57;;;;;;;27.17;19.60;;;14.40;99.90;;;;;;5013111;28;20716;-76
2023/05/23 01:18:37;;;;;;;26.75;18.85;;;14.40;99.90;;;;;;5014680;28;20636;-77
2023/05/23 01:21:15;;;;;;;22.83;17.08;;;14.40;99.90;;;;;;5012906;28;20175;-77
2023/05/23 01:23:54;;;;;;;22.17;17.00;;;14.40;99.90;;;;;;5012994;28;20183;-77
2023/05/23 01:26:40;;;;;;;19.77;15.73;;;14.40;99.90;;;;;;5012857;28;20212;-77
2023/05/23 01:29:20;;;;;;;18.70;14.98;;;14.30;99.90;;;;;;5013066;28;20567;-76
2023/05/23 01:31:50;;;;;;;17.45;13.55;;;14.20;99.90;;;;;;5014182;28;20179;-76
2023/05/23 01:34:18;;;;;;;19.98;15.10;;;14.10;99.90;;;;;;5012938;28;20640;-78
2023/05/23 01:36:44;;;;;;;15.68;13.13;;;14.10;99.90;;;;;;5013338;28;20254;-77
2023/05/23 01:39:11;;;;;;;14.25;12.38;;;14.10;99.90;;;;;;5013105;28;20176;-76
2023/05/23 01:41:37;;;;;;;13.60;11.23;;;14.10;99.90;;;;;;5013006;28;20242;-77
2023/05/23 01:44:03;;;;;;;14.15;10.73;;;14.00;99.90;;;;;;5013016;28;20183;-77
2023/05/23 01:46:31;;;;;;;15.13;12.02;;;14.00;99.90;;;;;;5014207;28;20211;-77
2023/05/23 01:48:59;;;;;;;14.13;9.98;;;14.00;99.90;;;;;;5014544;28;20625;-76
2023/05/23 01:51:26;;;;;;;13.70;10.43;;;14.00;99.90;;;;;;5014091;28;20186;-76
2023/05/23 01:53:52;;;;;;;15.23;11.10;;;14.00;99.90;;;;;;5013945;28;20246;-76
2023/05/23 01:56:20;;;;;;;12.60;9.90;;;14.00;99.90;;;;;;5012594;28;20675;-76
2023/05/23 01:58:46;;;;;;;12.57;10.88;;;14.00;99.90;;;;;;5013858;28;20180;-76
2023/05/23 02:01:12;;;;;;;14.50;12.65;;;13.90;99.90;;;;;;5012535;28;20698;-77
2023/05/23 02:03:38;;;;;;;13.20;11.60;;;14.00;99.90;;;;;;5012607;28;20187;-76
2023/05/23 02:06:04;;;;;;;15.23;11.85;;;13.90;99.90;;;;;;5013705;28;20287;-77
2023/05/23 02:08:30;;;;;;;15.27;12.45;;;14.00;99.90;;;;;;5012755;28;20614;-76
2023/05/23 02:10:56;;;;;;;17.00;11.57;;;14.00;99.90;;;;;;5013749;28;20251;-76
2023/05/23 02:13:21;;;;;;;16.05;11.60;;;14.00;99.90;;;;;;5013920;28;20168;-76
2023/05/23 02:15:47;;;;;;;16.92;12.27;;;14.00;99.90;;;;;;5013920;28;20203;-76
2023/05/23 02:18:13;;;;;;;13.63;11.43;;;14.00;99.90;;;;;;5014280;28;20188;-77
2023/05/23 02:20:39;;;;;;;16.40;12.20;;;14.00;99.90;;;;;;5013736;28;20184;-76
2023/05/23 02:23:05;;;;;;;12.75;11.15;;;14.00;99.90;;;;;;5012589;28;20184;-76
2023/05/23 02:25:31;;;;;;;15.23;11.85;;;13.90;99.90;;;;;;5012339;28;20212;-76
2023/05/23 02:27:57;;;;;;;15.80;12.40;;;13.90;99.90;;;;;;5013625;28;20732;-76
2023/05/23 02:30:22;;;;;;;15.48;12.25;;;13.80;99.90;;;;;;5012603;28;20180;-76
2023/05/23 02:32:48;;;;;;;18.15;12.00;;;13.80;99.90;;;;;;5013480;28;20267;-76
2023/05/23 02:35:14;;;;;;;16.38;12.13;;;13.80;99.90;;;;;;5009030;28;20180;-76
2023/05/23 02:37:40;;;;;;;17.38;12.80;;;13.80;99.90;;;;;;5013317;28;20566;-76
2023/05/23 02:40:07;;;;;;;15.77;12.27;;;13.80;99.90;;;;;;5012231;28;20180;-76
2023/05/23 02:42:33;;;;;;;17.05;13.93;;;13.80;99.90;;;;;;5013404;28;20238;-76
2023/05/23 02:44:59;;;;;;;16.50;14.15;;;13.70;99.90;;;;;;5013404;28;20199;-76
2023/05/23 02:47:24;;;;;;;19.02;14.48;;;13.70;99.90;;;;;;5013199;28;20196;-76
2023/05/23 02:49:50;;;;;;;18.95;14.45;;;13.70;99.90;;;;;;5017279;28;20172;-76
2023/05/23 02:52:16;;;;;;;20.25;15.23;;;13.70;99.90;;;;;;5017405;28;20629;-76
2023/05/23 02:54:42;;;;;;;19.67;14.65;;;13.70;99.90;;;;;;5016043;28;20267;-76
2023/05/23 02:57:08;;;;;;;19.75;14.63;;;13.70;99.90;;;;;;5017368;28;20623;-76
2023/05/23 02:59:34;;;;;;;18.98;14.05;;;13.60;99.90;;;;;;5015583;28;20175;-76
2023/05/23 03:02:00;;;;;;;18.55;13.88;;;13.60;99.90;;;;;;5015672;28;20191;-75
2023/05/23 03:04:26;;;;;;;17.35;12.80;;;13.60;99.90;;;;;;5017274;28;20674;-76
2023/05/23 03:06:53;;;;;;;16.98;13.40;;;13.60;99.90;;;;;;5015194;28;20759;-76
2023/05/23 03:09:19;;;;;;;14.70;11.75;;;13.60;99.90;;;;;;5016674;28;20200;-76
2023/05/23 03:11:45;;;;;;;16.67;12.68;;;13.70;99.90;;;;;;5016638;28;20585;-76
2023/05/23 03:14:11;;;;;;;18.52;12.80;;;13.70;99.90;;;;;;5016637;28;20179;-76
2023/05/23 03:16:37;;;;;;;18.85;13.85;;;13.70;99.90;;;;;;5016732;28;20196;-76
2023/05/23 03:19:03;;;;;;;18.60;13.30;;;13.70;99.90;;;;;;5016545;28;20183;-76
2023/05/23 03:21:31;;;;;;;22.08;14.43;;;13.70;99.90;;;;;;5016269;28;20176;-76
2023/05/23 03:23:56;;;;;;;22.25;15.77;;;13.70;99.90;;;;;;5016279;28;20226;-75
2023/05/23 03:26:22;;;;;;;18.30;14.80;;;13.70;99.90;;;;;;5016151;28;20219;-76
2023/05/23 03:28:50;;;;;;;22.92;15.70;;;13.80;99.90;;;;;;5014949;28;20180;-76
2023/05/23 03:31:16;;;;;;;24.08;15.40;;;13.80;99.90;;;;;;5015095;28;20262;-76
2023/05/23 03:33:41;;;;;;;25.60;16.08;;;13.80;99.90;;;;;;5015235;28;20199;-76
2023/05/23 03:36:07;;;;;;;24.95;15.98;;;13.80;99.90;;;;;;5014920;28;21979;-76
2023/05/23 03:38:33;;;;;;;21.50;15.25;;;13.80;99.90;;;;;;5015090;28;20176;-76
2023/05/23 03:40:59;;;;;;;21.27;15.50;;;13.80;99.90;;;;;;5014824;28;20279;-75
2023/05/23 03:43:25;;;;;;;22.48;15.77;;;13.90;99.90;;;;;;5015060;28;20180;-76
2023/05/23 03:45:51;;;;;;;22.00;16.85;;;13.90;99.90;;;;;;5014744;28;20262;-76
2023/05/23 03:48:17;;;;;;;22.98;16.08;;;14.00;99.90;;;;;;5016600;28;20180;-76
2023/05/23 03:50:42;;;;;;;20.83;16.50;;;13.90;99.90;;;;;;5016217;28;20183;-74
2023/05/23 03:53:08;;;;;;;24.65;17.38;;;13.90;99.90;;;;;;5015138;28;20172;-75
2023/05/23 03:55:34;;;;;;;24.23;18.05;;;14.00;99.90;;;;;;5015824;28;20187;-76
2023/05/23 03:57:59;;;;;;;23.67;17.98;;;14.00;99.90;;;;;;5015878;28;20548;-76
2023/05/23 04:00:25;;;;;;;24.80;16.80;;;14.10;99.90;;;;;;5013789;28;20643;-76
2023/05/23 04:02:51;;;;;;;21.60;16.92;;;14.00;99.90;;;;;;5014630;28;20532;-76
2023/05/23 04:05:17;;;;;;;24.50;16.92;;;14.00;99.90;;;;;;5015634;28;20195;-76
2023/05/23 04:07:44;;;;;;;28.50;16.65;;;14.00;99.90;;;;;;5014254;28;20195;-76
2023/05/23 04:10:10;;;;;;;23.13;15.80;;;13.90;99.90;;;;;;5014613;28;20191;-76
2023/05/23 04:12:37;;;;;;;27.75;15.32;;;13.90;99.90;;;;;;5014402;28;20186;-76
2023/05/23 04:15:04;;;;;;;25.25;14.93;;;13.90;99.90;;;;;;5014251;28;20183;-77
2023/05/23 04:17:30;;;;;;;25.48;16.25;;;13.80;99.90;;;;;;5015615;28;20191;-76
2023/05/23 04:19:56;;;;;;;25.05;16.52;;;13.80;99.90;;;;;;5015750;28;20637;-76
2023/05/23 04:22:22;;;;;;;30.33;19.63;;;13.80;99.90;;;;;;5015232;28;20184;-76
2023/05/23 04:24:48;;;;;;;24.58;17.15;;;13.80;99.90;;;;;;5015440;28;20213;-76
2023/05/23 04:27:13;;;;;;;27.13;19.05;;;13.80;99.90;;;;;;5015368;28;20212;-76
2023/05/23 04:29:39;;;;;;;28.02;19.38;;;13.80;99.90;;;;;;5015331;28;20183;-76
2023/05/23 04:32:06;;;;;;;25.98;18.63;;;13.80;99.90;;;;;;5014082;28;20187;-76
2023/05/23 04:34:36;;;;;;;27.02;18.30;;;13.80;99.90;;;;;;5013922;28;20263;-76
2023/05/23 04:37:02;;;;;;;29.92;18.50;;;13.70;99.90;;;;;;5013495;28;20314;-76
2023/05/23 04:39:29;;;;;;;33.10;18.63;;;13.80;99.90;;;;;;5015472;28;20267;-77
2023/05/23 04:41:55;;;;;;;26.52;18.58;;;13.80;99.90;;;;;;5013908;28;20184;-76
2023/05/23 04:44:22;;;;;;;29.42;19.10;;;13.80;99.90;;;;;;5015041;28;20171;-77
2023/05/23 04:46:49;;;;;;;27.67;18.05;;;13.70;99.90;;;;;;5013694;28;20223;-76
2023/05/23 04:49:15;;;;;;;24.85;16.75;;;13.70;99.90;;;;;;5013785;28;20171;-76
2023/05/23 04:51:41;;;;;;;24.15;16.95;;;13.70;99.90;;;;;;5013596;28;20180;-77
2023/05/23 04:54:07;;;;;;;22.33;13.93;;;13.70;99.90;;;;;;5014702;28;20172;-76
2023/05/23 04:56:33;;;;;;;22.17;14.35;;;13.70;99.90;;;;;;5013249;28;20299;-75
2023/05/23 04:58:59;;;;;;;20.35;13.60;;;13.70;99.90;;;;;;5014839;28;20238;-75
2023/05/23 05:01:25;;;;;;;19.42;12.88;;;13.70;99.90;;;;;;5014652;28;20238;-74
2023/05/23 05:03:51;;;;;;;20.23;12.95;;;13.70;99.90;;;;;;5014673;28;20176;-75
2023/05/23 05:06:17;;;;;;;19.65;13.10;;;13.70;99.90;;;;;;5013058;28;20211;-74
2023/05/23 05:08:43;;;;;;;18.83;13.02;;;13.70;99.90;;;;;;5014563;28;20182;-75
2023/05/23 05:11:09;;;;;;;19.90;13.70;;;13.70;99.90;;;;;;5013265;28;20179;-74
2023/05/23 05:13:35;;;;;;;20.70;15.40;;;13.70;99.90;;;;;;5014712;28;20184;-75
2023/05/23 05:16:01;;;;;;;21.00;14.77;;;13.70;99.90;;;;;;5013741;28;20184;-74
2023/05/23 05:18:27;;;;;;;21.30;15.00;;;13.70;99.90;;;;;;5014421;28;20250;-75
2023/05/23 05:20:53;;;;;;;22.63;16.45;;;13.70;99.90;;;;;;5014513;28;20180;-73
2023/05/23 05:23:19;;;;;;;26.48;16.35;;;13.70;99.90;;;;;;5013112;28;20230;-74
2023/05/23 05:25:46;;;;;;;20.88;16.13;;;13.70;99.90;;;;;;5014792;28;20195;-75
2023/05/23 05:28:12;;;;;;;22.05;15.57;;;13.70;99.90;;;;;;5014145;28;20194;-75
2023/05/23 05:30:38;;;;;;;24.88;15.10;;;13.80;99.90;;;;;;5014240;28;20172;-75
2023/05/23 05:33:04;;;;;;;20.73;15.02;;;13.80;99.90;;;;;;5014197;28;20222;-75
2023/05/23 05:35:34;;;;;;;25.23;15.30;;;13.80;99.90;;;;;;5014103;28;20527;-75
2023/05/23 05:38:03;;;;;;;20.17;16.20;;;13.80;99.90;;;;;;5012566;28;20199;-75
2023/05/23 05:40:32;;;;;;;24.55;15.98;;;13.80;99.90;;;;;;5012783;28;20183;-75
2023/05/23 05:42:58;;;;;;;25.35;17.20;;;13.80;99.90;;;;;;5013803;28;20229;-75
2023/05/23 05:45:24;;;;;;;23.77;17.80;;;13.80;99.90;;;;;;5013910;28;20605;-75
2023/05/23 05:47:50;;;;;;;27.05;17.90;;;13.90;99.90;;;;;;5014087;28;20653;-72
2023/05/23 05:50:16;;;;;;;24.95;17.92;;;13.90;99.90;;;;;;5013827;28;20167;-74
2023/05/23 05:52:42;;;;;;;26.83;18.25;;;13.90;99.90;;;;;;5012388;28;20225;-74
2023/05/23 05:55:10;;;;;;;26.67;18.63;;;13.90;99.90;;;;;;5012548;28;20168;-74
2023/05/23 05:57:37;;;;;;;26.33;18.90;;;13.90;99.90;;;;;;5012447;28;20203;-74
2023/05/23 06:00:12;;;;;;;32.20;22.67;;;13.90;99.90;;;;;;5013671;28;20589;-74
2023/05/23 06:02:46;;;;;;;34.53;23.15;;;13.90;99.90;;;;;;5013678;28;20519;-74
2023/05/23 06:05:13;;;;;;;33.90;22.83;;;13.80;99.90;;;;;;5013555;28;20176;-73
2023/05/23 06:07:39;;;;;;;34.90;21.40;;;13.80;99.90;;;;;;5012057;28;20725;-74
2023/05/23 06:10:06;;;;;;;30.67;20.35;;;13.80;99.90;;;;;;5013875;28;20174;-74
2023/05/23 06:12:33;;;;;;;31.63;19.35;;;13.80;99.90;;;;;;5013498;28;20221;-74
2023/05/23 06:14:59;;;;;;;33.67;19.58;;;13.80;99.90;;;;;;5013532;28;20172;-74
2023/05/23 06:17:24;;;;;;;34.10;19.67;;;13.80;99.90;;;;;;5013465;28;20279;-74
2023/05/23 06:19:50;;;;;;;30.92;21.33;;;13.80;99.90;;;;;;5013737;28;20172;-74
2023/05/23 06:22:17;;;;;;;33.95;21.83;;;13.70;99.90;;;;;;5014444;28;20176;-74
2023/05/23 06:24:43;;;;;;;33.72;21.02;;;13.70;99.90;;;;;;5017446;28;20194;-74
2023/05/23 06:27:08;;;;;;;32.47;21.30;;;13.70;99.90;;;;;;5017194;28;20642;-74
2023/05/23 06:29:35;;;;;;;33.28;20.52;;;13.70;99.90;;;;;;5016274;28;20554;-74
2023/05/23 06:32:01;;;;;;;37.05;23.75;;;13.70;99.90;;;;;;5018012;28;20180;-73
2023/05/23 06:34:27;;;;;;;33.90;22.83;;;13.70;99.90;;;;;;5019602;28;20514;-73
2023/05/23 06:36:53;;;;;;;27.48;20.23;;;13.70;99.90;;;;;;5016205;28;20237;-73
2023/05/23 06:39:19;;;;;;;25.70;16.25;;;13.60;99.90;;;;;;5017451;28;20258;-73
2023/05/23 06:41:46;;;;;;;21.73;14.30;;;13.60;99.90;;;;;;5017232;28;20203;-74
2023/05/23 06:44:12;;;;;;;23.63;13.80;;;13.50;99.90;;;;;;5015743;28;20192;-74
2023/05/23 06:46:38;;;;;;;19.42;12.52;;;13.50;99.90;;;;;;5016876;28;20622;-74
2023/05/23 06:49:04;;;;;;;17.90;13.02;;;13.40;99.90;;;;;;5016650;28;20175;-74
2023/05/23 06:51:30;;;;;;;21.23;12.10;;;13.40;99.90;;;;;;5015617;28;20253;-74
2023/05/23 06:53:56;;;;;;;18.90;11.85;;;13.40;99.90;;;;;;5016965;28;20196;-74
2023/05/23 06:56:22;;;;;;;21.67;12.13;;;13.40;99.90;;;;;;5015377;28;20214;-74
2023/05/23 06:58:48;;;;;;;18.90;11.45;;;13.40;99.90;;;;;;5016665;28;20202;-74
2023/05/23 07:01:14;;;;;;;16.90;11.07;;;13.40;99.90;;;;;;5016765;28;20216;-74
2023/05/23 07:03:42;;;;;;;17.23;11.85;;;13.40;99.90;;;;;;5016598;28;20171;-74
2023/05/23 07:06:08;;;;;;;16.42;11.52;;;13.40;99.90;;;;;;5016133;28;20661;-73
2023/05/23 07:08:33;;;;;;;20.55;10.85;;;13.40;99.90;;;;;;5016423;28;20191;-72
2023/05/23 07:10:59;;;;;;;18.83;11.75;;;13.40;99.90;;;;;;5016362;28;20168;-72
2023/05/23 07:13:25;;;;;;;16.88;12.95;;;13.40;99.90;;;;;;5016426;28;20180;-72
2023/05/23 07:15:51;;;;;;;18.05;12.25;;;13.40;99.90;;;;;;5016331;28;20514;-74
2023/05/23 07:18:16;;;;;;;26.38;12.43;;;13.30;99.90;;;;;;5015032;28;20238;-73
2023/05/23 07:20:42;;;;;;;20.42;12.82;;;13.30;99.90;;;;;;5016335;28;20271;-73
2023/05/23 07:23:08;;;;;;;18.75;11.30;;;13.30;99.90;;;;;;5016282;28;20572;-73
2023/05/23 07:25:34;;;;;;;15.73;11.13;;;13.20;99.90;;;;;;5014855;28;20199;-73
2023/05/23 07:27:59;;;;;;;16.92;11.43;;;13.20;99.90;;;;;;5015999;28;20192;-74
2023/05/23 07:30:25;;;;;;;15.23;10.45;;;13.10;99.90;;;;;;5016388;28;20266;-74
2023/05/23 07:32:54;;;;;;;16.70;10.75;;;13.10;99.90;;;;;;5016108;28;20188;-74
2023/05/23 07:35:24;;;;;;;16.75;11.10;;;13.00;99.90;;;;;;5014687;28;20194;-73
2023/05/23 07:37:51;;;;;;;17.45;10.93;;;13.00;99.90;;;;;;5015990;28;20282;-74
2023/05/23 07:40:17;;;;;;;18.05;11.20;;;13.00;99.90;;;;;;5016053;28;20254;-74
2023/05/23 07:42:42;;;;;;;16.98;10.88;;;12.90;99.90;;;;;;5014973;28;20716;-72
2023/05/23 07:45:08;;;;;;;14.90;10.77;;;12.90;99.90;;;;;;5014504;28;20172;-72
2023/05/23 07:47:34;;;;;;;17.08;10.88;;;12.90;99.90;;;;;;5015710;28;20534;-73
2023/05/23 07:50:01;;;;;;;18.40;11.57;;;12.90;99.90;;;;;;5015735;28;20175;-73
2023/05/23 07:52:29;;;;;;;16.63;10.20;;;12.90;99.90;;;;;;5014223;28;20184;-73
2023/05/23 07:54:55;;;;;;;16.48;10.70;;;12.90;99.90;;;;;;5014231;28;20180;-74
2023/05/23 07:57:23;;;;;;;16.85;9.77;;;12.90;99.90;;;;;;5015612;28;20536;-73
2023/05/23 07:59:50;;;;;;;20.08;10.50;;;12.90;99.90;;;;;;5014335;28;20267;-73
2023/05/23 08:02:16;;;;;;;18.13;10.50;;;12.90;99.90;;;;;;5015519;28;20238;-73
2023/05/23 08:04:42;;;;;;;16.83;9.98;;;12.90;99.90;;;;;;5015472;28;20179;-73
2023/05/23 08:07:08;;;;;;;18.63;10.60;;;13.00;99.90;;;;;;5015233;28;20696;-73
2023/05/23 08:09:34;;;;;;;15.70;9.68;;;13.10;99.90;;;;;;5014166;28;20656;-74
2023/05/23 08:12:00;;;;;;;13.68;9.52;;;13.10;99.90;;;;;;5015112;28;20215;-74
2023/05/23 08:14:26;;;;;;;19.58;10.45;;;13.10;99.90;;;;;;5014083;28;20195;-74
2023/05/23 08:16:52;;;;;;;15.73;9.65;;;13.10;99.90;;;;;;5013871;28;20199;-74
2023/05/23 08:19:18;;;;;;;14.73;9.88;;;13.10;99.90;;;;;;5015709;28;20172;-74
2023/05/23 08:21:44;;;;;;;17.25;11.30;;;13.20;99.90;;;;;;5013659;28;20191;-74
2023/05/23 08:24:11;;;;;;;16.30;10.60;;;13.20;99.90;;;;;;5013838;28;20318;-74
2023/05/23 08:26:38;;;;;;;16.42;9.93;;;13.20;99.90;;;;;;5014686;28;20261;-74
2023/05/23 08:29:03;;;;;;;24.10;10.85;;;13.20;99.90;;;;;;5014983;28;20187;-74
2023/05/23 08:31:30;;;;;;;15.73;9.63;;;13.10;99.90;;;;;;5015263;28;20172;-74
2023/05/23 08:33:56;;;;;;;20.35;10.00;;;13.20;99.90;;;;;;5014907;28;20187;-74
2023/05/23 08:36:22;;;;;;;20.90;9.38;;;13.20;99.90;;;;;;5014622;28;20205;-74
2023/05/23 08:38:50;;;;;;;14.65;9.55;;;13.20;99.90;;;;;;5015063;28;20525;-74
2023/05/23 08:41:20;;;;;;;14.02;9.38;;;13.20;99.90;;;;;;5013461;28;20190;-74
2023/05/23 08:43:47;;;;;;;13.40;8.90;;;13.30;99.90;;;;;;5013562;28;20168;-74
2023/05/23 08:46:14;;;;;;;13.23;8.88;;;13.40;99.90;;;;;;5012830;28;20211;-74
2023/05/23 08:48:41;;;;;;;15.88;8.93;;;13.40;99.90;;;;;;5014922;28;20259;-74
2023/05/23 08:51:12;;;;;;;17.33;9.43;;;13.50;99.90;;;;;;5013324;28;20179;-74
2023/05/23 08:53:45;;;;;;;14.57;9.68;;;13.50;99.90;;;;;;5014527;28;20235;-74
2023/05/23 08:56:12;;;;;;;15.57;9.02;;;13.40;99.90;;;;;;5014891;28;20199;-73
2023/05/23 08:58:40;;;;;;;11.80;7.93;;;13.40;99.90;;;;;;5013190;28;20619;-74
2023/05/23 09:01:08;;;;;;;14.40;8.57;;;13.30;99.90;;;;;;5014609;28;20701;-74
2023/05/23 09:03:36;;;;;;;13.00;8.38;;;13.40;99.90;;;;;;5013293;28;20184;-74
2023/05/23 09:06:05;;;;;;;15.43;8.20;;;13.50;99.90;;;;;;5014296;28;20207;-74
2023/05/23 09:08:31;;;;;;;15.55;8.85;;;13.60;99.90;;;;;;5014138;28;20179;-74
2023/05/23 09:10:57;;;;;;;14.02;8.18;;;13.60;99.90;;;;;;5014316;28;20527;-74
2023/05/23 09:13:24;;;;;;;14.30;8.70;;;13.60;99.90;;;;;;5013150;28;20664;-74
2023/05/23 09:16:03;;;;;;;15.23;8.80;;;13.60;99.90;;;;;;5012908;28;20266;-74
2023/05/23 09:18:40;;;;;;;11.52;8.20;;;13.50;99.90;;;;;;5014195;28;20302;-74
2023/05/23 09:21:08;;;;;;;15.98;9.10;;;13.50;99.90;;;;;;5014155;28;20176;-74
2023/05/23 09:23:35;;;;;;;19.48;8.73;;;13.40;99.90;;;;;;5014118;28;20574;-74
2023/05/23 09:26:07;;;;;;;19.85;9.25;;;13.30;99.90;;;;;;5012744;28;20199;-74
2023/05/23 09:28:34;;;;;;;19.58;9.35;;;13.30;99.90;;;;;;5013953;28;20176;-74
2023/05/23 09:31:09;;;;;;;18.02;9.52;;;13.20;99.90;;;;;;5012866;28;20234;-74
2023/05/23 09:33:38;;;;;;;14.98;9.05;;;13.10;99.90;;;;;;5012945;28;20202;-74
2023/05/23 09:36:05;;;;;;;14.88;9.02;;;13.00;99.90;;;;;;5012962;28;20665;-74
2023/05/23 09:38:31;;;;;;;14.25;8.82;;;13.00;99.90;;;;;;5013827;28;20191;-74
2023/05/23 09:40:58;;;;;;;11.52;8.75;;;13.00;99.90;;;;;;5014303;28;20172;-74
2023/05/23 09:43:24;;;;;;;12.68;8.68;;;12.90;99.90;;;;;;5013933;28;20191;-74
2023/05/23 09:45:51;;;;;;;15.57;8.45;;;12.90;99.90;;;;;;5012385;28;20604;-74
2023/05/23 09:48:17;;;;;;;12.70;8.20;;;12.90;99.90;;;;;;5012351;28;20176;-74
2023/05/23 09:50:50;;;;;;;11.20;9.07;;;12.90;99.90;;;;;;5012422;28;20259;-74
2023/05/23 09:53:15;;;;;;;17.45;9.40;;;12.90;99.90;;;;;;5012410;28;20226;-74
2023/05/23 09:55:41;;;;;;;17.17;8.95;;;12.90;99.90;;;;;;5014184;28;20183;-74
2023/05/23 09:58:07;;;;;;;17.08;9.50;;;13.00;99.90;;;;;;5015995;28;20191;-74
2023/05/23 10:00:33;;;;;;;15.73;9.00;;;13.00;99.90;;;;;;5017788;28;20196;-74
2023/05/23 10:03:12;;;;;;;19.30;9.85;;;13.00;99.90;;;;;;5017709;28;20175;-74
2023/05/23 10:05:54;;;;;;;16.15;10.15;;;12.90;99.90;;;;;;5016380;28;20211;-76
2023/05/23 10:08:25;;;;;;;18.80;11.05;;;12.90;99.90;;;;;;5017581;28;20152;-76
2023/05/23 10:10:57;;;;;;;19.63;10.98;;;12.80;99.90;;;;;;5017614;28;20157;-75
2023/05/23 10:13:26;;;;;;;22.15;11.02;;;12.70;99.90;;;;;;5016534;28;20655;-76
2023/05/23 10:16:00;;;;;;;23.27;12.60;;;12.70;99.90;;;;;;5017694;28;20179;-74
2023/05/23 10:18:29;;;;;;;16.77;10.60;;;12.70;99.90;;;;;;5017795;28;20167;-74
2023/05/23 10:21:00;;;;;;;19.60;10.38;;;12.80;99.90;;;;;;5016469;28;20636;-74
2023/05/23 10:23:28;;;;;;;20.48;10.05;;;12.90;99.90;;;;;;5017364;28;20522;-76
2023/05/23 10:25:54;;;;;;;12.57;9.20;;;12.90;99.90;;;;;;5017448;28;20737;-75
2023/05/23 10:28:20;;;;;;;16.08;10.13;;;12.80;99.90;;;;;;5017393;28;20250;-75
2023/05/23 10:30:47;;;;;;;18.55;9.90;;;12.80;99.90;;;;;;5017840;28;20168;-74
2023/05/23 10:33:15;;;;;;;18.05;10.82;;;12.80;99.90;;;;;;5015925;28;20199;-74
2023/05/23 10:36:08;;;;;;;13.75;9.48;;;12.90;99.90;;;;;;5017065;28;20615;-74
2023/05/23 10:38:45;;;;;;;18.33;9.90;;;12.80;99.90;;;;;;5017064;28;20267;-74
2023/05/23 10:41:22;;;;;;;19.73;10.07;;;12.70;99.90;;;;;;5015821;28;20234;-74
2023/05/23 10:44:01;;;;;;;17.00;9.75;;;12.60;99.90;;;;;;5015685;28;20226;-74
2023/05/23 10:46:56;;;;;;;17.23;10.25;;;12.60;99.90;;;;;;5016845;28;20208;-74
2023/05/23 10:49:42;;;;;;;17.90;10.00;;;12.50;99.90;;;;;;5016918;28;20238;-74
2023/05/23 10:52:10;;;;;;;17.73;11.27;;;12.40;99.90;;;;;;5015446;28;20172;-74
2023/05/23 10:54:45;;;;;;;13.73;9.93;;;12.40;99.90;;;;;;5016873;28;20164;-74
2023/05/23 10:57:15;;;;;;;22.33;10.27;;;12.30;99.90;;;;;;5016721;28;20203;-75
2023/05/23 10:59:41;;;;;;;15.02;9.30;;;12.30;99.90;;;;;;5017325;28;20160;-74
2023/05/23 11:02:15;;;;;;;20.45;11.05;;;12.30;99.90;;;;;;5017221;28;20176;-74
2023/05/23 11:04:42;;;;;;;19.45;11.48;;;12.40;99.90;;;;;;5016906;28;20182;-74
2023/05/23 11:07:30;;;;;;;16.60;10.35;;;12.40;99.90;;;;;;5016282;28;20211;-75
2023/05/23 11:10:12;;;;;;;19.05;9.75;;;12.60;99.90;;;;;;5016239;28;20172;-74
2023/05/23 11:12:43;;;;;;;16.73;9.27;;;12.70;99.90;;;;;;5016461;28;20163;-74
2023/05/23 11:15:22;;;;;;;17.35;8.90;;;13.00;99.90;;;;;;5015130;28;20555;-74
2023/05/23 11:17:56;;;;;;;14.95;8.63;;;13.10;99.90;;;;;;5015630;28;20198;-74
2023/05/23 11:20:27;;;;;;;15.13;8.23;;;13.30;99.90;;;;;;5016330;28;20160;-75
2023/05/23 11:23:01;;;;;;;13.05;7.93;;;13.70;99.90;;;;;;5014887;28;20420;-74
2023/05/23 11:25:43;;;;;;;16.52;7.50;;;14.00;99.90;;;;;;5014900;28;20187;-74
2023/05/23 11:28:10;;;;;;;14.50;7.70;;;14.00;99.90;;;;;;5016185;28;20194;-74
2023/05/23 11:30:37;;;;;;;10.27;7.53;;;14.10;99.90;;;;;;5016183;28;20171;-74
2023/05/23 11:33:13;;;;;;;15.68;8.90;;;14.10;99.90;;;;;;5016236;28;20194;-75
2023/05/23 11:35:45;;;;;;;12.48;8.05;;;14.00;99.90;;;;;;5016279;28;20555;-75
2023/05/23 11:38:14;;;;;;;13.43;8.57;;;14.00;99.90;;;;;;5015983;28;20203;-75
2023/05/23 11:40:42;;;;;;;12.52;8.35;;;13.90;99.90;;;;;;5016058;28;20172;-74
2023/05/23 11:43:10;;;;;;;14.57;8.50;;;13.80;99.90;;;;;;5014647;28;20184;-74
2023/05/23 11:45:37;;;;;;;17.33;9.02;;;13.80;99.90;;;;;;5014524;28;20183;-74
2023/05/23 11:48:10;;;;;;;14.15;8.20;;;13.60;99.90;;;;;;5016133;28;20230;-74
2023/05/23 11:50:44;;;;;;;14.15;7.70;;;13.60;99.90;;;;;;5014688;28;20243;-75
2023/05/23 11:53:11;;;;;;;13.13;7.65;;;13.60;99.90;;;;;;5015681;28;20182;-74
2023/05/23 11:55:39;;;;;;;17.17;7.40;;;13.60;99.90;;;;;;5015853;28;20168;-74
2023/05/23 11:58:05;;;;;;;13.38;7.20;;;13.70;99.90;;;;;;5014303;28;20192;-74
2023/05/23 12:00:30;;;;;;;17.33;7.25;;;13.90;99.90;;;;;;5015836;28;20258;-74
2023/05/23 12:02:56;;;;;;;13.88;6.78;;;13.90;99.90;;;;;;5015600;28;20226;-74
2023/05/23 12:05:22;;;;;;;14.52;6.45;;;13.90;99.90;;;;;;5015454;28;20191;-74
2023/05/23 12:07:48;;;;;;;10.18;6.10;;;13.80;99.90;;;;;;5014055;28;20192;-74
2023/05/23 12:10:21;;;;;;;13.43;6.30;;;13.70;99.90;;;;;;5014224;28;20644;-74
2023/05/23 12:12:47;;;;;;;14.32;6.20;;;13.80;99.90;;;;;;5015319;28;20156;-74
2023/05/23 12:15:13;;;;;;;13.43;6.40;;;13.90;99.90;;;;;;5014131;28;20180;-74
2023/05/23 12:17:47;;;;;;;10.98;6.10;;;13.90;99.90;;;;;;5015423;28;20192;-74
2023/05/23 12:20:13;;;;;;;12.43;6.00;;;14.00;99.90;;;;;;5014556;28;20624;-74
2023/05/23 12:22:39;;;;;;;14.65;6.75;;;14.10;99.90;;;;;;5014019;28;20330;-74
2023/05/23 12:25:08;;;;;;;15.00;6.22;;;14.10;99.90;;;;;;5015852;28;20684;-74
2023/05/23 12:27:36;;;;;;;11.70;5.95;;;13.90;99.90;;;;;;5015082;28;20212;-74
2023/05/23 12:30:08;;;;;;;12.60;6.97;;;13.90;99.90;;;;;;5016054;28;20235;-74
2023/05/23 12:32:39;;;;;;;13.38;6.30;;;13.80;99.90;;;;;;5015856;28;20215;-74
2023/05/23 12:35:05;;;;;;;16.48;6.65;;;13.70;99.90;;;;;;5014269;28;20258;-74